createdAt,value
2023-04-15T00:02:18.615Z,14.95
2023-04-15T00:04:49.063Z,14.75
2023-04-15T00:07:17.194Z,15.57
2023-04-15T00:09:44.985Z,15.73
2023-04-15T00:12:12.181Z,15.10
2023-04-15T00:14:38.838Z,15.93
2023-04-15T00:17:05.499Z,15.68
2023-04-15T00:19:32.604Z,15.13
2023-04-15T00:22:00.276Z,15.48
2023-04-15T00:24:26.938Z,16.70
2023-04-15T00:26:53.923Z,14.75
2023-04-15T00:29:21.248Z,16.27
2023-04-15T00:31:48.128Z,16.15
2023-04-15T00:34:14.979Z,16.35
2023-04-15T00:36:41.786Z,16.92
2023-04-15T00:39:08.768Z,17.15
2023-04-15T00:41:35.350Z,17.33
2023-04-15T00:44:02.475Z,17.48
2023-04-15T00:46:33.133Z,16.80
2023-04-15T00:49:00.832Z,17.25
2023-04-15T00:51:27.508Z,18.20
2023-04-15T00:53:54.518Z,16.30
2023-04-15T00:56:24.661Z,18.15
2023-04-15T00:58:52.402Z,17.70
2023-04-15T01:01:22.469Z,17.70
2023-04-15T01:03:53.262Z,18.05
2023-04-15T01:06:19.990Z,18.83
2023-04-15T01:08:46.866Z,18.50
2023-04-15T01:11:14.043Z,19.02
2023-04-15T01:13:40.906Z,19.00
2023-04-15T01:16:08.801Z,19.88
2023-04-15T01:18:38.982Z,18.88
2023-04-15T01:21:07.447Z,19.15
2023-04-15T01:23:38.732Z,20.23
2023-04-15T01:26:08.132Z,19.20
2023-04-15T01:28:36.208Z,19.10
2023-04-15T01:31:13.956Z,18.13
2023-04-15T01:33:42.676Z,19.17
2023-04-15T01:36:10.964Z,18.65
2023-04-15T01:38:38.442Z,19.33
2023-04-15T01:41:07.666Z,20.42
2023-04-15T01:43:40.212Z,18.42
2023-04-15T01:46:07.363Z,20.90
2023-04-15T01:48:34.623Z,20.00
2023-04-15T01:51:01.521Z,22.42
2023-04-15T01:53:28.286Z,20.35
2023-04-15T01:55:54.854Z,20.30
2023-04-15T01:58:22.627Z,19.52
2023-04-15T02:00:49.488Z,19.75
2023-04-15T02:03:16.346Z,20.48
2023-04-15T02:05:43.737Z,20.80
2023-04-15T02:08:10.322Z,20.95
2023-04-15T02:10:37.009Z,21.38
2023-04-15T02:13:04.457Z,20.60
2023-04-15T02:15:31.108Z,20.40
2023-04-15T02:17:59.344Z,19.10
2023-04-15T02:20:26.413Z,20.17
2023-04-15T02:22:53.070Z,19.88
2023-04-15T02:25:20.716Z,20.98
2023-04-15T02:27:47.308Z,19.52
2023-04-15T02:30:14.147Z,20.33
2023-04-15T02:32:41.529Z,20.60
2023-04-15T02:35:09.227Z,19.90
2023-04-15T02:37:40.861Z,21.02
2023-04-15T02:42:41.110Z,18.35
2023-04-15T02:45:08.568Z,19.75
2023-04-15T02:47:36.269Z,20.42
2023-04-15T02:50:04.292Z,20.30
2023-04-15T02:52:31.222Z,19.92
2023-04-15T02:55:00.747Z,20.80
2023-04-15T02:57:31.254Z,21.05
2023-04-15T02:59:57.900Z,19.52
2023-04-15T03:02:24.768Z,19.65
2023-04-15T03:04:51.845Z,21.75
2023-04-15T03:07:19.865Z,21.48
2023-04-15T03:09:47.833Z,21.38
2023-04-15T03:12:14.876Z,20.88
2023-04-15T03:14:41.715Z,20.95
2023-04-15T03:17:08.306Z,20.48
2023-04-15T03:19:34.939Z,19.17
2023-04-15T03:22:01.592Z,21.95
2023-04-15T03:24:29.748Z,20.27
2023-04-15T03:26:57.935Z,19.70
2023-04-15T03:29:24.592Z,20.52
2023-04-15T03:31:52.572Z,19.85
2023-04-15T03:34:19.523Z,20.52
2023-04-15T03:36:46.942Z,21.55
2023-04-15T03:39:13.737Z,19.30
2023-04-15T03:41:40.820Z,19.75
2023-04-15T03:44:07.382Z,19.80
2023-04-15T03:46:34.060Z,20.23
2023-04-15T03:49:00.938Z,20.67
2023-04-15T03:51:27.658Z,20.40
2023-04-15T03:53:54.514Z,19.75
2023-04-15T03:56:21.065Z,20.30
2023-04-15T03:58:47.674Z,19.75
2023-04-15T04:01:14.566Z,18.45
2023-04-15T04:03:41.512Z,18.45
2023-04-15T04:06:08.478Z,19.25
2023-04-15T04:08:35.094Z,19.42
2023-04-15T04:11:02.083Z,19.48
2023-04-15T04:13:28.926Z,18.23
2023-04-15T04:15:56.507Z,18.40
2023-04-15T04:18:23.416Z,18.80
2023-04-15T04:20:50.051Z,19.58
2023-04-15T04:23:16.699Z,19.52
2023-04-15T04:25:43.696Z,20.20
2023-04-15T04:28:10.344Z,18.80
2023-04-15T04:30:37.174Z,17.80
2023-04-15T04:33:03.958Z,18.88
2023-04-15T04:35:30.564Z,18.17
2023-04-15T04:37:57.386Z,18.77
2023-04-15T04:40:25.116Z,17.83
2023-04-15T04:42:51.627Z,18.83
2023-04-15T04:45:18.268Z,19.52
2023-04-15T04:47:44.895Z,18.30
2023-04-15T04:50:11.659Z,17.77
2023-04-15T04:52:38.653Z,18.75
2023-04-15T04:55:05.804Z,19.33
2023-04-15T04:57:32.530Z,18.98
2023-04-15T04:59:59.137Z,17.90
2023-04-15T05:02:27.334Z,18.17
2023-04-15T05:04:54.812Z,17.27
2023-04-15T05:07:21.446Z,18.50
2023-04-15T05:09:48.172Z,17.15
2023-04-15T05:12:15.529Z,19.15
2023-04-15T05:14:42.496Z,19.02
2023-04-15T05:17:09.154Z,17.40
2023-04-15T05:19:36.065Z,17.58
2023-04-15T05:22:03.024Z,16.70
2023-04-15T05:24:29.641Z,16.55
2023-04-15T05:26:57.203Z,18.00
2023-04-15T05:29:23.933Z,18.25
2023-04-15T05:31:51.041Z,18.10
2023-04-15T05:34:17.641Z,17.20
2023-04-15T05:36:44.271Z,16.52
2023-04-15T05:39:10.945Z,16.05
2023-04-15T05:41:38.217Z,16.80
2023-04-15T05:44:05.169Z,16.13
2023-04-15T05:46:31.918Z,15.50
2023-04-15T05:48:58.621Z,16.30
2023-04-15T05:51:25.965Z,15.70
2023-04-15T05:53:52.595Z,16.58
2023-04-15T05:56:20.441Z,16.10
2023-04-15T05:58:47.168Z,15.55
2023-04-15T06:01:13.866Z,15.35
2023-04-15T06:03:40.813Z,13.90
2023-04-15T06:06:11.120Z,15.25
2023-04-15T06:08:37.729Z,14.40
2023-04-15T06:11:04.453Z,14.23
2023-04-15T06:13:31.091Z,14.40
2023-04-15T06:15:57.932Z,12.70
2023-04-15T06:18:24.678Z,12.57
2023-04-15T06:20:51.812Z,11.65
2023-04-15T06:23:18.420Z,12.02
2023-04-15T06:25:45.088Z,10.30
2023-04-15T06:28:12.453Z,12.23
2023-04-15T06:30:39.196Z,11.32
2023-04-15T06:33:06.850Z,10.77
2023-04-15T06:35:34.004Z,10.18
2023-04-15T06:38:00.706Z,9.30
2023-04-15T06:40:27.876Z,9.23
2023-04-15T06:42:55.106Z,8.60
2023-04-15T06:45:21.603Z,9.63
2023-04-15T06:47:48.129Z,9.52
2023-04-15T06:50:14.784Z,9.27
2023-04-15T06:52:41.602Z,9.48
2023-04-15T06:55:08.833Z,9.52
2023-04-15T06:57:35.634Z,9.23
2023-04-15T07:00:06.023Z,8.85
2023-04-15T07:02:32.650Z,8.27
2023-04-15T07:04:59.313Z,8.60
2023-04-15T07:07:26.491Z,7.97
2023-04-15T07:09:53.910Z,8.00
2023-04-15T07:12:20.933Z,8.50
2023-04-15T07:14:47.711Z,8.65
2023-04-15T07:17:15.973Z,7.97
2023-04-15T07:19:42.633Z,8.52
2023-04-15T07:22:09.185Z,8.45
2023-04-15T07:24:36.407Z,8.57
2023-04-15T07:27:04.264Z,8.57
2023-04-15T07:29:32.184Z,9.23
2023-04-15T07:31:59.789Z,8.85
2023-04-15T07:34:27.016Z,8.82
2023-04-15T07:36:53.612Z,9.15
2023-04-15T07:39:20.194Z,9.50
2023-04-15T07:41:46.701Z,9.40
2023-04-15T07:44:13.236Z,8.80
2023-04-15T07:46:39.906Z,9.52
2023-04-15T07:49:07.758Z,9.60
2023-04-15T07:51:34.579Z,9.07
2023-04-15T07:54:01.439Z,10.05
2023-04-15T07:56:27.983Z,9.75
2023-04-15T07:58:54.672Z,9.82
2023-04-15T08:01:21.864Z,9.77
2023-04-15T08:03:48.902Z,9.68
2023-04-15T08:06:15.623Z,10.18
2023-04-15T08:08:43.208Z,10.18
2023-04-15T08:11:09.883Z,9.70
2023-04-15T08:13:36.428Z,9.10
2023-04-15T08:16:39.986Z,9.45
2023-04-15T08:19:09.610Z,9.48
2023-04-15T08:21:36.725Z,9.35
2023-04-15T08:24:04.122Z,10.18
2023-04-15T08:26:31.249Z,9.93
2023-04-15T08:29:00.252Z,9.63
2023-04-15T08:31:27.492Z,9.68
2023-04-15T08:33:55.436Z,9.75
2023-04-15T08:36:22.307Z,10.27
2023-04-15T08:38:48.918Z,9.48
2023-04-15T08:41:25.491Z,10.70
2023-04-15T08:44:02.156Z,9.93
2023-04-15T08:46:31.428Z,10.68
2023-04-15T08:48:58.986Z,10.10
2023-04-15T08:51:26.502Z,10.25
2023-04-15T08:53:53.277Z,10.15
2023-04-15T08:56:24.719Z,10.90
2023-04-15T08:58:51.448Z,10.20
2023-04-15T09:01:18.510Z,10.00
2023-04-15T09:03:47.770Z,9.25
2023-04-15T09:06:17.519Z,9.32
2023-04-15T09:08:46.712Z,9.38
2023-04-15T09:11:19.374Z,10.65
2023-04-15T09:13:46.994Z,9.18
2023-04-15T09:16:13.895Z,9.95
2023-04-15T09:18:40.391Z,10.25
2023-04-15T09:21:09.452Z,10.48
2023-04-15T09:23:36.290Z,9.95
2023-04-15T09:26:03.900Z,10.43
2023-04-15T09:28:31.178Z,9.60
2023-04-15T09:31:02.229Z,9.43
2023-04-15T09:33:30.517Z,9.43
2023-04-15T09:35:58.740Z,10.07
2023-04-15T09:38:26.721Z,10.43
2023-04-15T09:40:56.121Z,9.73
2023-04-15T09:43:23.031Z,10.43
2023-04-15T09:45:52.500Z,9.93
2023-04-15T09:48:27.327Z,9.10
2023-04-15T09:50:55.039Z,10.10
2023-04-15T09:53:23.653Z,10.52
2023-04-15T09:55:58.252Z,9.23
2023-04-15T09:58:31.617Z,9.73
2023-04-15T10:01:01.950Z,12.10
2023-04-15T10:03:31.236Z,10.32
2023-04-15T10:06:00.235Z,10.10
2023-04-15T10:08:32.993Z,10.40
2023-04-15T10:11:03.046Z,10.27
2023-04-15T10:13:35.146Z,10.43
2023-04-15T10:16:16.486Z,10.98
2023-04-15T10:18:46.576Z,10.75
2023-04-15T10:21:16.432Z,10.60
2023-04-15T10:23:47.967Z,10.70
2023-04-15T10:28:42.188Z,10.05
2023-04-15T10:31:10.253Z,10.15
2023-04-15T10:33:38.001Z,9.80
2023-04-15T10:36:06.552Z,10.52
2023-04-15T10:38:42.138Z,10.48
2023-04-15T10:41:21.838Z,11.10
2023-04-15T10:44:02.609Z,10.93
2023-04-15T10:46:38.062Z,11.07
2023-04-15T10:49:15.682Z,11.38
2023-04-15T10:52:03.207Z,10.15
2023-04-15T10:54:30.035Z,11.25
2023-04-15T10:57:06.236Z,10.70
2023-04-15T10:59:36.463Z,11.70
2023-04-15T11:02:06.040Z,10.35
2023-04-15T11:05:00.357Z,10.10
2023-04-15T11:07:46.779Z,10.65
2023-04-15T11:10:26.278Z,10.32
2023-04-15T11:12:55.113Z,10.50
2023-04-15T11:15:41.148Z,10.40
2023-04-15T11:18:23.258Z,10.40
2023-04-15T11:20:59.971Z,10.07
2023-04-15T11:23:37.969Z,10.80
2023-04-15T11:26:09.370Z,10.40
2023-04-15T11:28:38.761Z,10.77
2023-04-15T11:31:18.361Z,10.95
2023-04-15T11:33:55.939Z,10.95
2023-04-15T11:36:26.539Z,10.85
2023-04-15T11:38:53.357Z,10.40
2023-04-15T11:41:23.715Z,10.55
2023-04-15T11:43:53.629Z,10.23
2023-04-15T11:46:22.011Z,10.45
2023-04-15T11:48:48.666Z,10.68
2023-04-15T11:51:15.609Z,9.63
2023-04-15T11:53:46.425Z,9.90
2023-04-15T11:56:21.207Z,10.13
2023-04-15T11:58:51.513Z,9.43
2023-04-15T12:01:19.247Z,9.25
2023-04-15T12:04:03.120Z,9.95
2023-04-15T12:06:37.477Z,9.63
2023-04-15T12:09:07.045Z,8.68
2023-04-15T12:11:41.002Z,8.68
2023-04-15T12:14:13.691Z,9.52
2023-04-15T12:16:47.936Z,8.68
2023-04-15T12:19:37.816Z,8.80
2023-04-15T12:22:06.745Z,8.57
2023-04-15T12:24:35.015Z,8.82
2023-04-15T12:27:09.822Z,9.85
2023-04-15T12:29:38.621Z,9.38
2023-04-15T12:32:05.388Z,9.15
2023-04-15T12:34:34.680Z,9.07
2023-04-15T12:37:03.284Z,9.07
2023-04-15T12:39:36.690Z,9.18
2023-04-15T12:42:04.547Z,9.50
2023-04-15T12:44:31.808Z,8.43
2023-04-15T12:46:58.675Z,9.90
2023-04-15T12:49:27.068Z,9.50
2023-04-15T12:51:55.427Z,9.40
2023-04-15T12:54:22.467Z,9.50
2023-04-15T12:56:50.668Z,9.32
2023-04-15T12:59:21.353Z,9.32
2023-04-15T13:01:49.068Z,9.82
2023-04-15T13:04:16.748Z,9.82
2023-04-15T13:06:43.580Z,10.23
2023-04-15T13:09:10.468Z,10.70
2023-04-15T13:11:37.200Z,9.57
2023-04-15T13:14:05.607Z,10.35
2023-04-15T13:16:33.197Z,10.13
2023-04-15T13:19:01.093Z,9.73
2023-04-15T13:21:27.777Z,9.82
2023-04-15T13:23:54.630Z,10.32
2023-04-15T13:26:21.539Z,10.40
2023-04-15T13:28:48.287Z,9.40
2023-04-15T13:31:14.880Z,10.32
2023-04-15T13:33:41.695Z,10.32
2023-04-15T13:36:09.076Z,10.68
2023-04-15T13:38:36.348Z,9.43
2023-04-15T13:41:03.124Z,10.27
2023-04-15T13:43:29.617Z,10.20
2023-04-15T13:45:56.520Z,10.40
2023-04-15T13:48:23.183Z,9.80
2023-04-15T13:50:50.468Z,10.13
2023-04-15T13:53:17.086Z,10.45
2023-04-15T13:55:43.825Z,10.02
2023-04-15T13:58:11.224Z,9.50
2023-04-15T14:00:37.841Z,9.95
2023-04-15T14:03:05.156Z,9.85
2023-04-15T14:05:32.957Z,10.00
2023-04-15T14:08:00.241Z,9.32
2023-04-15T14:10:26.812Z,9.88
2023-04-15T14:12:53.364Z,9.32
2023-04-15T14:15:19.992Z,9.45
2023-04-15T14:17:46.604Z,9.85
2023-04-15T14:20:14.516Z,9.77
2023-04-15T14:22:43.052Z,10.02
2023-04-15T14:25:13.171Z,10.07
2023-04-15T14:27:43.985Z,9.90
2023-04-15T14:30:11.724Z,9.38
2023-04-15T14:32:38.297Z,9.80
2023-04-15T14:35:05.965Z,9.45
2023-04-15T14:37:32.982Z,10.35
2023-04-15T14:39:59.549Z,10.20
2023-04-15T14:42:26.105Z,10.68
2023-04-15T14:44:52.997Z,10.30
2023-04-15T14:47:19.820Z,11.02
2023-04-15T14:49:46.502Z,11.18
2023-04-15T14:52:13.824Z,10.48
2023-04-15T14:54:40.970Z,10.77
2023-04-15T14:57:08.849Z,10.23
2023-04-15T14:59:35.585Z,10.77
2023-04-15T15:02:02.335Z,11.05
2023-04-15T15:04:29.414Z,10.50
2023-04-15T15:06:56.529Z,10.40
2023-04-15T15:09:23.944Z,10.00
2023-04-15T15:11:51.009Z,11.20
2023-04-15T15:14:17.600Z,11.07
2023-04-15T15:16:44.322Z,10.30
2023-04-15T15:19:11.096Z,11.18
2023-04-15T15:21:37.772Z,11.07
2023-04-15T15:24:04.637Z,10.43
2023-04-15T15:26:31.447Z,10.27
2023-04-15T15:28:58.395Z,10.90
2023-04-15T15:31:24.966Z,10.38
2023-04-15T15:33:52.990Z,10.35
2023-04-15T15:36:19.939Z,10.02
2023-04-15T15:38:46.583Z,10.43
2023-04-15T15:41:13.153Z,10.63
2023-04-15T15:43:40.028Z,10.32
2023-04-15T15:46:06.519Z,10.35
2023-04-15T15:48:33.081Z,9.45
2023-04-15T15:50:59.672Z,9.98
2023-04-15T15:53:26.424Z,10.05
2023-04-15T15:55:54.064Z,8.77
2023-04-15T15:58:20.776Z,9.23
2023-04-15T16:00:47.474Z,9.65
2023-04-15T16:03:14.148Z,8.93
2023-04-15T16:05:40.776Z,9.68
2023-04-15T16:08:07.465Z,9.25
2023-04-15T16:10:34.096Z,8.75
2023-04-15T16:13:00.768Z,8.40
2023-04-15T16:15:28.869Z,8.77
2023-04-15T16:17:55.799Z,8.35
2023-04-15T16:20:22.402Z,9.18
2023-04-15T16:22:48.884Z,8.45
2023-04-15T16:25:15.475Z,8.38
2023-04-15T16:27:57.235Z,8.63
2023-04-15T16:30:26.083Z,8.35
2023-04-15T16:32:52.763Z,8.18
2023-04-15T16:35:20.235Z,8.38
2023-04-15T16:37:47.154Z,7.85
2023-04-15T16:40:13.743Z,8.40
2023-04-15T16:42:43.997Z,9.05
2023-04-15T16:45:11.267Z,7.38
2023-04-15T16:47:38.109Z,7.65
2023-04-15T16:52:38.753Z,7.93
2023-04-15T16:55:05.354Z,8.05
2023-04-15T16:57:50.662Z,8.48
2023-04-15T17:00:18.672Z,8.48
2023-04-15T17:02:45.785Z,8.07
2023-04-15T17:05:12.354Z,8.43
2023-04-15T17:07:38.952Z,7.68
2023-04-15T17:10:08.746Z,8.23
2023-04-15T17:12:35.341Z,8.70
2023-04-15T17:15:01.883Z,8.57
2023-04-15T17:17:28.458Z,8.55
2023-04-15T17:19:55.291Z,8.52
2023-04-15T17:22:25.104Z,8.10
2023-04-15T17:24:51.887Z,8.18
2023-04-15T17:27:18.348Z,8.32
2023-04-15T17:29:44.899Z,8.50
2023-04-15T17:32:13.611Z,8.90
2023-04-15T17:34:49.667Z,8.32
2023-04-15T17:37:17.333Z,8.77
2023-04-15T17:39:43.870Z,8.50
2023-04-15T17:42:13.773Z,9.57
2023-04-15T17:44:40.283Z,9.80
2023-04-15T17:47:07.353Z,10.48
2023-04-15T17:49:34.312Z,9.50
2023-04-15T17:52:04.710Z,10.02
2023-04-15T17:54:31.330Z,10.30
2023-04-15T17:56:58.060Z,9.68
2023-04-15T17:59:24.511Z,9.57
2023-04-15T18:01:51.148Z,10.73
2023-04-15T18:04:17.734Z,11.02
2023-04-15T18:06:44.323Z,11.10
2023-04-15T18:09:11.300Z,10.93
2023-04-15T18:11:43.970Z,11.18
2023-04-15T18:14:11.304Z,11.75
2023-04-15T18:16:40.182Z,11.02
2023-04-15T18:19:06.940Z,11.25
2023-04-15T18:21:33.459Z,10.90
2023-04-15T18:23:59.904Z,11.57
2023-04-15T18:26:27.629Z,11.00
2023-04-15T18:28:55.168Z,11.02
2023-04-15T18:31:21.681Z,11.10
2023-04-15T18:33:48.521Z,10.65
2023-04-15T18:36:15.042Z,11.05
2023-04-15T18:38:41.680Z,11.23
2023-04-15T18:41:09.996Z,10.60
2023-04-15T18:43:36.624Z,11.07
2023-04-15T18:46:03.999Z,11.77
2023-04-15T18:48:30.957Z,11.43
2023-04-15T18:50:58.612Z,10.57
2023-04-15T18:53:25.066Z,11.63
2023-04-15T18:55:51.774Z,11.50
2023-04-15T18:58:23.993Z,11.27
2023-04-15T19:00:50.490Z,12.27
2023-04-15T19:03:17.118Z,12.30
2023-04-15T19:05:43.944Z,12.40
2023-04-15T19:08:10.808Z,12.43
2023-04-15T19:10:38.151Z,12.73
2023-04-15T19:13:12.062Z,13.88
2023-04-15T19:15:38.552Z,13.88
2023-04-15T19:18:10.480Z,14.25
2023-04-15T19:20:40.392Z,15.00
2023-04-15T19:23:07.125Z,14.52
2023-04-15T19:25:33.660Z,14.02
2023-04-15T19:28:00.307Z,14.35
2023-04-15T19:30:26.774Z,15.15
2023-04-15T19:32:53.380Z,13.48
2023-04-15T19:35:20.778Z,13.80
2023-04-15T19:37:47.806Z,13.55
2023-04-15T19:40:14.460Z,13.25
2023-04-15T19:42:41.242Z,13.13
2023-04-15T19:45:08.154Z,14.05
2023-04-15T19:47:34.932Z,13.15
2023-04-15T19:50:01.627Z,14.05
2023-04-15T19:52:28.149Z,14.27
2023-04-15T19:54:54.651Z,13.80
2023-04-15T19:57:21.201Z,13.65
2023-04-15T19:59:47.917Z,13.13
2023-04-15T20:02:14.555Z,13.50
2023-04-15T20:04:41.352Z,13.50
2023-04-15T20:07:08.301Z,13.32
2023-04-15T20:09:35.193Z,12.60
2023-04-15T20:12:48.058Z,12.85
2023-04-15T20:14:48.208Z,13.35
2023-04-15T20:17:16.496Z,13.68
2023-04-15T20:19:43.140Z,13.20
2023-04-15T20:22:09.788Z,13.70
2023-04-15T20:24:36.351Z,14.02
2023-04-15T20:27:03.853Z,12.63
2023-04-15T20:29:30.466Z,13.32
2023-04-15T20:31:57.762Z,14.07
2023-04-15T20:34:24.497Z,13.90
2023-04-15T20:36:51.279Z,13.65
2023-04-15T20:39:17.762Z,14.65
2023-04-15T20:41:46.296Z,13.85
2023-04-15T20:44:12.810Z,14.10
2023-04-15T20:46:39.307Z,13.38
2023-04-15T20:49:06.096Z,13.85
2023-04-15T20:51:37.878Z,13.32
2023-04-15T20:56:31.743Z,13.43
2023-04-15T20:58:59.060Z,13.90
2023-04-15T21:01:26.053Z,13.52
2023-04-15T21:03:52.647Z,13.85
2023-04-15T21:06:19.195Z,13.85
2023-04-15T21:08:45.828Z,14.32
2023-04-15T21:11:14.853Z,13.52
2023-04-15T21:13:56.984Z,13.98
2023-04-15T21:16:23.746Z,14.40
2023-04-15T21:18:50.983Z,13.75
2023-04-15T21:21:17.647Z,13.80
2023-04-15T21:23:44.273Z,13.98
2023-04-15T21:26:11.054Z,14.27
2023-04-15T21:28:39.201Z,13.65
2023-04-15T21:31:06.647Z,14.27
2023-04-15T21:33:33.498Z,14.45
2023-04-15T21:36:00.144Z,14.02
2023-04-15T21:38:26.791Z,13.30
2023-04-15T21:40:53.545Z,14.82
2023-04-15T21:43:24.194Z,13.98
2023-04-15T21:46:20.872Z,14.25
2023-04-15T21:48:37.456Z,14.10
2023-04-15T21:51:04.314Z,13.98
2023-04-15T21:53:31.252Z,15.55
2023-04-15T21:55:58.246Z,15.48
2023-04-15T21:58:24.820Z,14.82
2023-04-15T22:00:57.257Z,14.85
2023-04-15T22:03:24.428Z,15.05
2023-04-15T22:05:51.236Z,15.30
2023-04-15T22:08:17.798Z,16.08
2023-04-15T22:10:44.416Z,16.60
2023-04-15T22:13:18.545Z,16.38
2023-04-15T22:15:48.959Z,17.20
2023-04-15T22:18:16.156Z,16.00
2023-04-15T22:20:45.995Z,15.80
2023-04-15T22:23:12.541Z,18.27
2023-04-15T22:25:39.259Z,18.67
2023-04-15T22:28:08.759Z,16.38
2023-04-15T22:30:39.604Z,17.73
2023-04-15T22:33:06.914Z,17.80
2023-04-15T22:35:34.436Z,17.67
2023-04-15T22:38:01.406Z,17.55
2023-04-15T22:40:28.736Z,16.95
2023-04-15T22:42:56.257Z,17.17
2023-04-15T22:45:22.964Z,17.10
2023-04-15T22:47:49.515Z,16.25
2023-04-15T22:50:16.158Z,16.58
2023-04-15T22:52:46.041Z,16.63
2023-04-15T22:55:12.796Z,17.63
2023-04-15T22:57:39.407Z,17.30
2023-04-15T23:00:07.351Z,17.15
2023-04-15T23:02:34.745Z,17.10
2023-04-15T23:05:04.180Z,16.70
2023-04-15T23:07:39.361Z,16.42
2023-04-15T23:10:07.043Z,16.42
2023-04-15T23:12:33.553Z,17.37
2023-04-15T23:15:00.160Z,18.10
2023-04-15T23:17:27.113Z,16.70
2023-04-15T23:19:53.679Z,17.83
2023-04-15T23:22:20.168Z,17.35
2023-04-15T23:24:46.648Z,17.70
2023-04-15T23:27:13.119Z,16.27
2023-04-15T23:29:39.674Z,16.35
2023-04-15T23:32:06.670Z,16.90
2023-04-15T23:34:33.224Z,16.63
2023-04-15T23:36:59.779Z,16.85
2023-04-15T23:39:26.470Z,16.33
2023-04-15T23:41:53.447Z,16.95
2023-04-15T23:44:20.386Z,15.90
2023-04-15T23:46:47.139Z,15.80
2023-04-15T23:49:13.658Z,16.67
2023-04-15T23:51:40.254Z,15.88
2023-04-15T23:54:06.828Z,15.65
2023-04-15T23:56:33.460Z,16.55
2023-04-15T23:58:59.919Z,16.30
